Time;durP1;ratioP1;P1;durP2;ratioP2;P2;SDS_P1;SDS_P2;PMS_P1;PMS_P2;Temp;Humidity;BMP_temperature;BMP_pressure;BME280_temperature;BME280_humidity;BME280_pressure;Samples;Min_cycle;Max_cycle;Signal;HPM_P1;HPM_P2
2022/11/25 00:02:21;;;;;;;6.18;3.72;;;;;;;8.59;61.61;99639.31;5076446;28;20032;-26
2022/11/25 00:04:47;;;;;;;7.20;4.00;;;;;;;8.70;61.76;99667.84;5077107;28;20503;-27
2022/11/25 00:07:12;;;;;;;7.25;3.47;;;;;;;8.66;61.52;99656.00;5058293;28;20028;-26
2022/11/25 00:09:37;;;;;;;6.30;4.05;;;;;;;8.79;61.67;99666.56;5059343;28;20033;-25
2022/11/25 00:12:03;;;;;;;7.00;3.67;;;;;;;8.64;61.88;99668.72;5076301;28;20035;-28
2022/11/25 00:14:29;;;;;;;7.90;3.63;;;;;;;8.71;61.77;99674.81;5072992;28;20028;-27
2022/11/25 00:16:54;;;;;;;6.65;3.90;;;;;;;8.67;61.63;99668.28;5048918;28;20036;-27
2022/11/25 00:19:20;;;;;;;5.78;3.28;;;;;;;8.67;61.95;99673.59;5067338;28;20108;-27
2022/11/25 00:21:45;;;;;;;7.05;4.20;;;;;;;8.68;62.14;99669.09;5067177;28;20028;-26
2022/11/25 00:24:13;;;;;;;5.95;3.13;;;;;;;8.54;62.68;99653.25;5049372;28;20037;-26
2022/11/25 00:26:39;;;;;;;5.35;3.25;;;;;;;8.65;61.98;99670.34;5067232;28;20751;-29
2022/11/25 00:29:07;;;;;;;6.53;3.80;;;;;;;8.66;62.43;99671.97;5067267;28;20032;-26
2022/11/25 00:31:34;;;;;;;7.20;3.28;;;;;;;8.45;62.41;99655.34;5067333;28;20028;-26
2022/11/25 00:34:01;;;;;;;5.10;3.03;;;;;;;8.54;62.10;99650.59;5066869;28;20043;-26
2022/11/25 00:36:28;;;;;;;4.88;2.92;;;;;;;8.31;63.03;99634.38;5066609;28;20028;-26
2022/11/25 00:38:58;;;;;;;6.78;3.53;;;;;;;8.67;62.25;99668.28;5066742;28;20051;-29
2022/11/25 00:46:54;;;;;;;5.53;3.35;;;;;;;8.66;62.33;99666.66;5066958;28;20139;-27
2022/11/25 00:49:20;;;;;;;5.45;2.80;;;;;;;8.50;62.41;99641.44;5066949;28;20504;-25
2022/11/25 00:51:46;;;;;;;5.53;3.20;;;;;;;8.50;62.14;99635.28;5067077;28;20111;-27
2022/11/25 00:54:12;;;;;;;5.47;2.88;;;;;;;8.64;62.14;99658.06;5066586;28;20031;-27
2022/11/25 00:56:37;;;;;;;4.82;2.92;;;;;;;8.70;61.65;99667.03;5066563;28;20111;-28
2022/11/25 00:59:03;;;;;;;4.65;2.58;;;;;;;8.60;61.59;99641.75;5048264;28;20570;-26
2022/11/25 01:01:28;;;;;;;4.63;2.72;;;;;;;8.68;61.58;99656.63;5066508;28;20032;-26
2022/11/25 01:03:54;;;;;;;4.50;2.70;;;;;;;8.48;61.44;99650.63;5048748;28;20036;-27
2022/11/25 01:06:20;;;;;;;4.63;2.50;;;;;;;8.53;61.26;99650.81;5066739;28;20480;-27
2022/11/25 01:08:46;;;;;;;4.70;2.60;;;;;;;8.79;61.25;99671.88;5066617;28;20042;-31
2022/11/25 01:11:14;;;;;;;4.22;2.92;;;;;;;8.80;61.07;99676.16;5066743;28;20020;-26
2022/11/25 01:13:40;;;;;;;5.03;2.40;;;;;;;8.62;61.46;99676.09;5066820;28;20039;-28
2022/11/25 01:16:07;;;;;;;3.67;2.28;;;;;;;8.71;61.28;99677.47;5066594;28;20604;-25
2022/11/25 01:18:33;;;;;;;5.15;2.78;;;;;;;8.80;61.43;99681.47;5066471;28;20116;-28
2022/11/25 01:21:13;;;;;;;4.10;2.50;;;;;;;8.86;60.83;99674.47;5048319;28;20169;-26
2022/11/25 01:23:40;;;;;;;4.60;2.50;;;;;;;8.63;61.47;99685.69;5048709;28;20046;-25
2022/11/25 01:26:14;;;;;;;3.60;2.00;;;;;;;8.78;60.75;99675.56;5066321;28;20304;-29
2022/11/25 01:28:40;;;;;;;5.75;2.70;;;;;;;8.79;61.21;99679.03;5048070;28;20147;-27
2022/11/25 01:31:17;;;;;;;5.00;2.80;;;;;;;8.71;61.39;99676.66;5066605;28;20035;-28
2022/11/25 01:33:44;;;;;;;5.07;2.42;;;;;;;8.82;60.63;99682.06;5066481;28;20033;-25
2022/11/25 01:36:15;;;;;;;4.63;2.67;;;;;;;8.89;60.06;99682.03;5066262;28;20032;-26
2022/11/25 01:38:41;;;;;;;7.40;2.90;;;;;;;8.75;60.75;99681.31;5066072;28;20051;-31
2022/11/25 01:41:09;;;;;;;5.03;2.80;;;;;;;8.83;60.56;99666.94;5047857;28;20519;-27
2022/11/25 01:43:35;;;;;;;4.10;2.10;;;;;;;8.85;60.27;99686.97;5066405;28;20115;-27
2022/11/25 01:46:03;;;;;;;4.78;2.28;;;;;;;8.95;59.90;99691.81;5066391;28;20779;-26
2022/11/25 01:48:52;;;;;;;5.00;2.70;;;;;;;8.99;59.29;99666.41;5065961;28;20043;-27
2022/11/25 01:51:28;;;;;;;;;;;;;;;8.99;59.45;99685.03;5066520;28;20165;-26
2022/11/25 01:53:58;;;;;;;5.97;2.70;;;;;;;8.67;59.85;99657.66;5066282;28;19987;-26
2022/11/25 01:56:27;;;;;;;4.47;2.22;;;;;;;8.85;59.73;99686.97;5068895;28;20549;-27
2022/11/25 01:58:53;;;;;;;3.90;2.20;;;;;;;8.78;59.88;99664.91;5070152;28;20109;-26
2022/11/25 02:01:20;;;;;;;2.30;1.65;;;;;;;8.85;59.36;99686.97;5069972;28;20527;-28
2022/11/25 02:03:50;;;;;;;3.53;2.10;;;;;;;8.81;59.61;99675.13;5069859;28;20113;-26
2022/11/25 02:06:29;;;;;;;4.20;2.30;;;;;;;8.90;59.57;99699.59;5051870;28;20029;-29
2022/11/25 02:09:01;;;;;;;4.63;2.45;;;;;;;8.92;58.83;99691.41;5051861;28;20397;-25
2022/11/25 02:11:29;;;;;;;4.07;2.60;;;;;;;9.03;58.71;99693.34;5051670;28;20021;-28
2022/11/25 02:13:56;;;;;;;5.55;2.05;;;;;;;8.97;58.60;99700.38;5069833;28;20032;-27
2022/11/25 02:16:22;;;;;;;4.22;2.13;;;;;;;9.02;58.48;99689.09;5069161;28;20025;-29
2022/11/25 02:18:49;;;;;;;3.95;2.25;;;;;;;8.75;59.37;99691.94;5069566;28;20093;-28
2022/11/25 02:21:19;;;;;;;4.65;2.65;;;;;;;8.85;59.55;99697.59;5069680;28;20115;-27
2022/11/25 02:23:58;;;;;;;6.30;2.53;;;;;;;8.71;59.07;99674.00;5069705;28;20029;-26
2022/11/25 02:26:23;;;;;;;4.25;2.50;;;;;;;8.85;59.34;99681.66;5069128;28;20020;-25
2022/11/25 02:28:49;;;;;;;4.22;2.30;;;;;;;8.95;59.19;99702.44;5069209;28;20527;-27
2022/11/25 02:31:20;;;;;;;6.32;2.22;;;;;;;8.89;58.88;99697.16;5069301;28;20029;-28
2022/11/25 02:33:45;;;;;;;5.10;2.75;;;;;;;8.71;59.49;99674.81;5069311;28;20039;-27
2022/11/25 02:36:14;;;;;;;4.53;2.60;;;;;;;8.65;60.02;99697.75;5069468;28;20017;-29
2022/11/25 02:38:48;;;;;;;3.05;2.20;;;;;;;8.82;60.10;99703.34;5069175;28;20059;-25
2022/11/25 02:41:33;;;;;;;4.32;2.38;;;;;;;8.87;59.98;99705.38;5069379;28;20087;-25
2022/11/25 02:44:00;;;;;;;4.40;2.33;;;;;;;8.81;59.51;99675.13;5051208;28;20127;-28
2022/11/25 02:46:27;;;;;;;5.50;2.20;;;;;;;8.92;59.39;99699.41;5069023;28;20029;-26
2022/11/25 02:48:54;;;;;;;5.25;2.72;;;;;;;8.88;59.71;99695.53;5069018;28;20056;-27
2022/11/25 02:51:22;;;;;;;5.73;2.63;;;;;;;8.97;59.73;99702.19;5069163;28;20036;-26
2022/11/25 02:53:48;;;;;;;6.03;3.00;;;;;;;8.95;59.66;99704.25;5068916;28;20033;-25
2022/11/25 02:56:15;;;;;;;4.40;2.70;;;;;;;8.85;60.00;99700.25;5068951;28;20093;-28
2022/11/25 02:58:41;;;;;;;5.57;3.58;;;;;;;8.87;60.30;99689.41;5068751;28;20036;-27
2022/11/25 03:01:06;;;;;;;8.00;3.53;;;;;;;8.72;60.36;99675.63;5068851;28;20505;-25
2022/11/25 03:03:32;;;;;;;5.97;3.10;;;;;;;8.80;60.54;99694.75;5068757;28;20031;-25
2022/11/25 03:05:57;;;;;;;5.70;3.45;;;;;;;8.77;61.00;99705.84;5068794;28;20024;-26
2022/11/25 03:08:22;;;;;;;6.00;3.85;;;;;;;8.67;60.60;99704.69;5067523;28;20025;-28
2022/11/25 03:10:48;;;;;;;6.88;3.45;;;;;;;8.61;61.36;99687.75;5068957;28;20024;-26
2022/11/25 03:13:14;;;;;;;5.30;3.00;;;;;;;8.64;61.40;99705.91;5068583;28;20054;-25
2022/11/25 03:15:39;;;;;;;7.32;3.63;;;;;;;8.73;61.17;99683.38;5068471;28;20459;-26
2022/11/25 03:18:05;;;;;;;4.68;2.83;;;;;;;8.56;60.84;99703.53;5068602;28;20075;-26
2022/11/25 03:20:31;;;;;;;5.88;3.47;;;;;;;8.63;61.50;99706.97;5068356;28;20033;-26
2022/11/25 03:22:56;;;;;;;8.05;3.95;;;;;;;8.79;60.61;99702.97;5068484;28;20035;-27
2022/11/25 03:25:22;;;;;;;7.28;3.45;;;;;;;8.69;61.06;99706.09;5068876;28;20480;-27
2022/11/25 03:27:48;;;;;;;6.03;3.60;;;;;;;8.64;61.03;99696.13;5068476;28;20184;-25
2022/11/25 03:30:22;;;;;;;5.45;3.58;;;;;;;8.74;60.58;99695.63;5068345;28;20039;-26
2022/11/25 03:32:48;;;;;;;4.90;2.95;;;;;;;8.76;59.74;99714.03;5068293;28;20039;-27
2022/11/25 03:35:14;;;;;;;7.05;4.00;;;;;;;8.83;59.64;99696.19;5068112;28;20020;-27
2022/11/25 03:37:40;;;;;;;6.50;3.70;;;;;;;8.96;59.47;99725.31;5049800;28;20060;-26
2022/11/25 03:40:07;;;;;;;5.25;3.78;;;;;;;8.92;59.12;99718.00;5068149;28;20661;-28
2022/11/25 03:42:33;;;;;;;5.03;2.95;;;;;;;8.92;59.03;99707.38;5049580;28;20029;-28
2022/11/25 03:44:59;;;;;;;6.68;3.85;;;;;;;8.84;59.14;99706.59;5068189;28;20150;-27
2022/11/25 03:47:24;;;;;;;4.88;2.90;;;;;;;8.81;58.61;99701.72;5068174;28;20120;-25
2022/11/25 03:49:50;;;;;;;5.65;3.33;;;;;;;9.03;58.07;99719.94;5067608;28;20653;-26
2022/11/25 03:52:16;;;;;;;5.13;2.97;;;;;;;8.80;58.18;99699.28;5049370;28;20516;-28
2022/11/25 03:54:41;;;;;;;5.28;2.78;;;;;;;8.81;58.71;99700.91;5067727;28;20036;-27
2022/11/25 03:57:06;;;;;;;6.18;3.40;;;;;;;8.92;58.33;99712.69;5067763;28;20055;-26
2022/11/25 03:59:32;;;;;;;6.32;3.33;;;;;;;8.80;58.69;99724.00;5067889;28;20085;-26
2022/11/25 04:01:57;;;;;;;5.60;3.50;;;;;;;8.79;58.79;99702.97;5067573;28;20024;-26
2022/11/25 04:04:23;;;;;;;6.78;3.85;;;;;;;8.92;58.03;99724.13;5067189;28;20025;-27
2022/11/25 04:06:48;;;;;;;4.85;3.17;;;;;;;8.74;58.48;99706.25;5069605;28;20111;-29
2022/11/25 04:09:14;;;;;;;6.65;3.60;;;;;;;8.96;57.95;99724.53;5088084;28;20407;-27
2022/11/25 04:14:24;;;;;;;4.55;2.50;;;;;;;8.74;58.08;99706.25;5072286;28;20055;-30
2022/11/25 04:16:49;;;;;;;5.53;2.97;;;;;;;8.78;58.21;99728.72;5087657;28;20410;-30
2022/11/25 04:19:15;;;;;;;4.22;2.75;;;;;;;8.79;58.17;99725.06;5086789;28;20454;-29
2022/11/25 04:21:40;;;;;;;6.00;3.20;;;;;;;8.71;57.84;99714.69;5087732;28;20024;-27
2022/11/25 04:24:06;;;;;;;4.78;3.03;;;;;;;8.85;58.52;99721.53;5069370;28;20089;-27
2022/11/25 04:26:32;;;;;;;4.97;2.88;;;;;;;8.98;57.69;99733.09;5087306;28;20055;-28
2022/11/25 04:28:57;;;;;;;4.55;2.88;;;;;;;8.79;57.71;99743.66;5087555;28;20038;-29
2022/11/25 04:31:23;;;;;;;4.63;2.70;;;;;;;8.79;58.24;99733.03;5087720;28;20035;-28
2022/11/25 04:33:48;;;;;;;4.60;3.03;;;;;;;8.89;57.87;99745.03;5069312;28;20039;-26
2022/11/25 04:36:14;;;;;;;6.38;3.10;;;;;;;8.79;58.27;99733.03;5087467;28;20294;-25
2022/11/25 04:38:39;;;;;;;5.32;3.40;;;;;;;8.82;57.24;99719.28;5087131;28;20791;-27
2022/11/25 04:41:05;;;;;;;6.28;2.95;;;;;;;8.70;57.65;99752.91;5068660;28;20028;-26
2022/11/25 04:43:30;;;;;;;4.15;2.70;;;;;;;8.85;57.31;99748.13;5087100;28;20043;-28
2022/11/25 04:45:56;;;;;;;5.13;2.58;;;;;;;8.81;56.58;99744.25;5087024;28;20028;-27
2022/11/25 04:48:22;;;;;;;5.00;3.08;;;;;;;8.92;57.12;99744.59;5068323;28;20038;-26
2022/11/25 04:50:47;;;;;;;5.47;2.90;;;;;;;9.04;56.59;99749.00;5087292;28;20055;-28
2022/11/25 04:53:12;;;;;;;5.28;3.00;;;;;;;9.08;56.76;99768.00;5087231;28;20151;-26
2022/11/25 04:55:38;;;;;;;6.13;3.70;;;;;;;9.00;56.27;99757.63;5087100;28;20046;-25
2022/11/25 04:58:04;;;;;;;5.63;2.83;;;;;;;8.91;56.61;99748.28;5086958;28;20107;-25
2022/11/25 05:00:29;;;;;;;5.20;3.42;;;;;;;8.92;56.56;99758.72;5086854;28;20047;-26
2022/11/25 05:02:54;;;;;;;4.60;3.03;;;;;;;8.85;56.80;99756.09;5086902;28;20031;-27
2022/11/25 05:05:20;;;;;;;8.75;5.13;;;;;;;8.95;56.75;99797.34;5087078;28;20051;-25
2022/11/25 05:07:45;;;;;;;7.32;4.00;;;;;;;8.89;57.25;99788.41;5068660;28;20491;-29
2022/11/25 05:10:11;;;;;;;6.18;3.63;;;;;;;8.95;57.05;99789.38;5086594;28;20036;-29
2022/11/25 05:12:37;;;;;;;7.68;4.75;;;;;;;8.99;57.40;99798.53;5086510;28;20028;-26
2022/11/25 05:15:04;;;;;;;5.97;3.55;;;;;;;8.87;57.38;99781.66;5068387;28;20035;-25
2022/11/25 05:17:30;;;;;;;7.82;4.82;;;;;;;8.94;57.46;99777.91;5086489;28;20399;-28
2022/11/25 05:19:56;;;;;;;4.97;3.22;;;;;;;8.76;57.97;99783.97;5086821;28;20036;-26
2022/11/25 05:22:25;;;;;;;6.47;3.08;;;;;;;8.69;58.17;99788.53;5086590;28;20024;-28
2022/11/25 05:24:51;;;;;;;5.20;3.20;;;;;;;8.70;58.60;99800.78;5086570;28;20111;-26
2022/11/25 05:27:17;;;;;;;4.40;3.05;;;;;;;8.62;58.60;99793.03;5086743;28;20111;-27
2022/11/25 05:29:42;;;;;;;5.65;3.50;;;;;;;8.81;58.30;99810.75;5086903;28;20028;-26
2022/11/25 05:32:09;;;;;;;5.97;3.25;;;;;;;8.92;58.23;99808.44;5072242;28;20031;-26
2022/11/25 05:34:34;;;;;;;4.95;2.97;;;;;;;8.73;58.51;99796.88;5090924;28;20083;-27
2022/11/25 05:37:00;;;;;;;4.40;2.63;;;;;;;8.79;58.85;99820.78;5090959;28;20499;-25
2022/11/25 05:39:25;;;;;;;3.95;2.50;;;;;;;8.89;58.52;99832.78;5090812;28;20039;-28
2022/11/25 05:41:51;;;;;;;6.63;3.08;;;;;;;8.72;58.77;99814.66;5090774;28;20027;-26
2022/11/25 05:44:16;;;;;;;5.28;2.67;;;;;;;8.81;57.86;99829.34;5072523;28;20058;-27
2022/11/25 05:46:45;;;;;;;4.10;2.42;;;;;;;8.76;58.50;99842.44;5090135;28;20027;-28
2022/11/25 05:49:11;;;;;;;5.00;2.58;;;;;;;8.72;58.28;99809.34;5090436;28;20044;-27
2022/11/25 05:51:37;;;;;;;7.25;2.65;;;;;;;8.97;57.58;99848.47;5090510;28;20035;-28
2022/11/25 05:54:02;;;;;;;3.97;2.35;;;;;;;8.95;57.81;99842.56;5072189;28;20036;-26
2022/11/25 05:56:28;;;;;;;4.72;2.25;;;;;;;8.78;57.34;99826.28;5071677;28;20777;-26
2022/11/25 05:58:54;;;;;;;2.38;2.00;;;;;;;8.74;57.81;99849.81;5090729;28;20111;-25
2022/11/25 06:01:20;;;;;;;3.90;2.10;;;;;;;8.85;57.15;99840.38;5090129;28;20619;-27
2022/11/25 06:03:45;;;;;;;6.30;2.80;;;;;;;8.77;57.47;99854.75;5072195;28;20461;-30
2022/11/25 06:06:11;;;;;;;5.78;2.85;;;;;;;8.99;56.53;99873.03;5090211;28;20028;-26
2022/11/25 06:08:38;;;;;;;5.72;2.85;;;;;;;9.03;57.34;99877.72;5071409;28;20054;-25
2022/11/25 06:11:10;;;;;;;4.55;2.40;;;;;;;8.93;56.83;99868.56;5071735;28;20702;-26
2022/11/25 06:13:36;;;;;;;4.57;2.15;;;;;;;8.85;56.86;99872.28;5089837;28;20028;-27
2022/11/25 06:16:09;;;;;;;4.07;2.08;;;;;;;8.89;57.47;99883.31;5090020;28;20044;-26
2022/11/25 06:18:36;;;;;;;3.78;2.15;;;;;;;8.79;57.74;99865.16;5071606;28;20028;-26
2022/11/25 06:21:02;;;;;;;5.53;2.63;;;;;;;9.06;56.69;99895.09;5089998;28;20028;-25
2022/11/25 06:23:27;;;;;;;4.65;2.42;;;;;;;9.13;56.52;99895.84;5090070;28;20044;-27
2022/11/25 06:25:52;;;;;;;5.53;2.47;;;;;;;9.15;56.48;99900.97;5089840;28;20032;-27
2022/11/25 06:28:18;;;;;;;5.68;2.53;;;;;;;9.05;57.25;99893.44;5090146;28;20024;-26
2022/11/25 06:30:43;;;;;;;4.40;1.95;;;;;;;9.17;56.98;99909.56;5089684;28;20483;-30
2022/11/25 06:33:09;;;;;;;4.82;2.70;;;;;;;9.11;57.56;99907.75;5090222;28;20024;-25
2022/11/25 06:35:34;;;;;;;3.67;1.98;;;;;;;9.11;57.12;99911.22;5089847;28;20039;-26
2022/11/25 06:38:00;;;;;;;4.88;2.40;;;;;;;9.10;57.44;99895.50;5089577;28;20599;-28
2022/11/25 06:40:25;;;;;;;4.60;2.90;;;;;;;9.15;57.37;99917.75;5089101;28;20039;-25
2022/11/25 06:42:51;;;;;;;4.32;2.53;;;;;;;9.11;56.98;99897.91;5069771;28;20248;-27
2022/11/25 06:45:16;;;;;;;3.33;2.05;;;;;;;9.10;57.12;99906.94;5089257;28;20085;-28
2022/11/25 06:47:42;;;;;;;5.30;2.58;;;;;;;9.23;57.63;99927.34;5089263;28;20031;-26
2022/11/25 06:50:08;;;;;;;5.95;2.55;;;;;;;9.26;56.95;99921.59;5089204;28;20049;-26
2022/11/25 06:52:33;;;;;;;8.35;3.38;;;;;;;9.49;57.04;99931.69;5088816;28;20088;-27
2022/11/25 06:54:59;;;;;;;4.38;2.28;;;;;;;9.31;57.39;99923.59;5089477;28;20036;-26
2022/11/25 06:57:24;;;;;;;4.35;2.40;;;;;;;9.39;57.62;99944.66;5070451;28;20105;-29
2022/11/25 06:59:50;;;;;;;4.13;2.33;;;;;;;9.20;57.61;99933.09;5088972;28;20106;-27
2022/11/25 07:02:16;;;;;;;3.83;2.17;;;;;;;9.23;57.88;99937.97;5089303;28;20107;-29
2022/11/25 07:04:41;;;;;;;4.50;2.70;;;;;;;9.31;58.30;99948.38;5088933;28;20036;-28
2022/11/25 07:07:07;;;;;;;5.57;2.92;;;;;;;9.33;57.51;99932.19;5089099;28;20171;-27
2022/11/25 07:09:33;;;;;;;5.15;2.35;;;;;;;9.37;57.85;99955.50;5089088;28;20031;-25
2022/11/25 07:11:59;;;;;;;3.67;2.20;;;;;;;9.29;58.21;99958.41;5070427;28;20028;-27
2022/11/25 07:14:24;;;;;;;4.07;2.50;;;;;;;9.35;58.33;99956.75;5088404;28;20085;-26
2022/11/25 07:16:50;;;;;;;4.07;2.58;;;;;;;9.34;57.77;99944.47;5070492;28;20106;-26
2022/11/25 07:19:17;;;;;;;4.85;2.42;;;;;;;9.53;57.52;99972.81;5070451;28;20040;-26
2022/11/25 07:21:44;;;;;;;5.00;2.40;;;;;;;9.60;57.24;99965.63;5088715;28;20027;-25
2022/11/25 07:24:12;;;;;;;3.08;1.98;;;;;;;9.75;57.03;99964.50;5088687;28;20028;-30
2022/11/25 07:26:39;;;;;;;2.58;1.88;;;;;;;9.57;57.12;99971.34;5088054;28;20040;-26
2022/11/25 07:29:10;;;;;;;4.28;1.80;;;;;;;9.51;56.62;99950.91;5088524;28;20647;-27
2022/11/25 07:31:44;;;;;;;4.00;2.22;;;;;;;9.52;57.52;99973.88;5088498;28;20097;-28
2022/11/25 07:34:13;;;;;;;5.05;2.08;;;;;;;9.61;57.67;99972.56;5070128;28;20024;-27
2022/11/25 07:36:39;;;;;;;2.47;1.75;;;;;;;9.49;56.73;99952.97;5088147;28;20035;-26
2022/11/25 07:39:09;;;;;;;2.90;1.85;;;;;;;9.55;57.33;99976.09;5088301;28;20540;-26
2022/11/25 07:41:35;;;;;;;5.85;2.40;;;;;;;9.59;57.15;99969.28;5070172;28;20115;-31
2022/11/25 07:44:03;;;;;;;3.78;2.20;;;;;;;9.70;56.36;99982.94;5088331;28;20116;-28
2022/11/25 07:46:30;;;;;;;6.30;3.08;;;;;;;9.98;56.00;99993.22;5069723;28;20129;-29
2022/11/25 07:48:58;;;;;;;4.80;2.38;;;;;;;9.93;55.73;99993.88;5088217;28;20044;-28
2022/11/25 07:51:36;;;;;;;6.35;2.53;;;;;;;9.85;55.63;99983.47;5088106;28;20044;-25
2022/11/25 07:54:03;;;;;;;;;;;;;;;10.06;55.97;100007.06;5088707;28;20043;-27
2022/11/25 07:56:29;;;;;;;4.00;2.33;;;;;;;10.11;56.23;100003.75;5069451;28;20404;-26
2022/11/25 07:58:55;;;;;;;3.78;2.20;;;;;;;10.09;55.69;99995.16;5088026;28;20112;-28
2022/11/25 08:01:29;;;;;;;4.75;1.90;;;;;;;10.12;55.62;100036.56;5087798;28;20121;-26
2022/11/25 08:03:55;;;;;;;3.75;2.22;;;;;;;10.02;55.86;99999.75;5068513;28;20059;-26
2022/11/25 08:06:23;;;;;;;8.95;4.70;;;;;;;10.16;55.65;100032.44;5087512;28;20031;-29
2022/11/25 08:08:49;;;;;;;5.28;2.33;;;;;;;10.00;55.21;99999.94;5087904;28;20027;-26
2022/11/25 08:11:20;;;;;;;5.78;2.83;;;;;;;10.06;55.65;100030.25;5088106;28;20040;-28
2022/11/25 08:13:46;;;;;;;5.65;2.88;;;;;;;10.05;55.78;100009.94;5087778;28;20036;-27
2022/11/25 08:16:14;;;;;;;3.63;2.13;;;;;;;10.33;55.23;100016.75;5087690;28;20113;-25
2022/11/25 08:18:40;;;;;;;5.25;2.78;;;;;;;10.47;55.35;100039.59;5087163;28;20027;-29
2022/11/25 08:21:08;;;;;;;3.53;1.92;;;;;;;10.35;55.05;100028.81;5069375;28;20028;-26
2022/11/25 08:23:35;;;;;;;2.58;1.90;;;;;;;10.25;55.50;100036.44;5087346;28;20028;-27
2022/11/25 08:26:12;;;;;;;5.40;2.35;;;;;;;9.98;56.15;100047.31;5087763;28;20456;-27
2022/11/25 08:28:40;;;;;;;5.25;2.00;;;;;;;10.11;55.40;100029.59;5087337;28;20032;-27
2022/11/25 08:31:14;;;;;;;3.72;1.80;;;;;;;10.20;54.70;100036.28;5087185;28;20039;-25
2022/11/25 08:33:40;;;;;;;3.95;2.10;;;;;;;10.56;54.33;100043.63;5087343;28;20086;-27
2022/11/25 08:36:06;;;;;;;11.35;2.05;;;;;;;10.76;53.47;100054.06;5087564;28;20047;-28
2022/11/25 08:38:32;;;;;;;2.63;1.55;;;;;;;10.79;53.11;100031.50;5068930;28;20063;-26
2022/11/25 08:40:59;;;;;;;8.20;4.32;;;;;;;11.02;52.95;100036.97;5087642;28;20387;-28
2022/11/25 08:43:25;;;;;;;6.43;2.33;;;;;;;10.83;52.78;100046.03;5087275;28;20040;-26
2022/11/25 08:45:51;;;;;;;9.02;4.15;;;;;;;10.96;52.04;100053.06;5087168;28;20583;-28
2022/11/25 08:48:18;;;;;;;2.55;1.65;;;;;;;10.91;51.66;100053.75;5087267;28;20115;-30
2022/11/25 08:50:50;;;;;;;2.50;1.65;;;;;;;11.20;51.54;100049.50;5087108;28;20048;-26
2022/11/25 08:53:17;;;;;;;15.88;5.10;;;;;;;11.56;50.92;100047.00;5087219;28;20047;-27
2022/11/25 08:55:42;;;;;;;4.63;3.22;;;;;;;12.02;50.21;100051.75;5068874;28;20971;-26
2022/11/25 08:58:10;;;;;;;9.18;3.60;;;;;;;12.20;48.79;100042.03;5086913;28;20036;-27
2022/11/25 09:00:36;;;;;;;10.30;4.80;;;;;;;12.00;48.73;100043.13;5086526;28;20056;-25
2022/11/25 09:03:02;;;;;;;4.75;2.03;;;;;;;12.39;48.85;100045.41;5068832;28;20036;-27
2022/11/25 09:05:34;;;;;;;6.30;2.80;;;;;;;12.33;48.13;100030.28;5086470;28;20486;-32
2022/11/25 09:08:00;;;;;;;6.78;2.35;;;;;;;12.56;47.23;100051.69;5087038;28;20036;-29
2022/11/25 09:10:26;;;;;;;3.10;1.70;;;;;;;12.33;47.25;100043.66;5068318;28;20081;-26
2022/11/25 09:12:51;;;;;;;12.70;3.45;;;;;;;12.20;47.41;100060.75;5086861;28;20503;-29
2022/11/25 09:15:17;;;;;;;11.52;3.67;;;;;;;12.33;46.89;100041.00;5068795;28;20035;-26
2022/11/25 09:17:42;;;;;;;9.43;3.50;;;;;;;12.38;46.98;100036.59;5068705;28;20655;-27
2022/11/25 09:20:08;;;;;;;11.07;3.75;;;;;;;12.66;46.08;100051.13;5086987;28;20038;-30
2022/11/25 09:22:33;;;;;;;6.07;2.35;;;;;;;13.16;45.31;100050.63;5086609;28;20020;-28
2022/11/25 09:24:59;;;;;;;6.35;2.13;;;;;;;12.93;45.19;100035.38;5068568;28;20126;-27
2022/11/25 09:27:24;;;;;;;9.43;2.15;;;;;;;12.77;45.15;100063.69;5086427;28;20028;-27
2022/11/25 09:29:50;;;;;;;8.45;2.92;;;;;;;13.06;45.14;100050.41;5086697;28;20031;-29
2022/11/25 09:32:15;;;;;;;4.32;1.60;;;;;;;13.33;43.14;100055.25;5086451;28;20499;-28
2022/11/25 09:34:41;;;;;;;6.88;3.58;;;;;;;13.68;43.37;100054.31;5086445;28;20032;-27
2022/11/25 09:37:06;;;;;;;11.77;4.75;;;;;;;13.84;41.52;100037.47;5086380;28;20111;-27
2022/11/25 09:39:33;;;;;;;9.75;3.75;;;;;;;13.69;41.75;100058.63;5086445;28;20053;-26
2022/11/25 09:48:44;;;;;;;2.80;1.60;;;;;;;13.56;42.07;100051.69;5070892;28;20047;-27
2022/11/25 09:51:20;;;;;;;5.57;2.65;;;;;;;13.69;41.36;100058.63;5086156;28;20109;-27
2022/11/25 09:54:20;;;;;;;3.42;1.80;;;;;;;13.60;41.82;100044.78;5086735;28;20092;-27
2022/11/25 09:56:54;;;;;;;9.07;3.10;;;;;;;14.19;40.35;100052.53;5086371;28;20029;-25
2022/11/25 09:59:59;;;;;;;2.40;1.80;;;;;;;13.54;41.26;100029.69;5086539;28;20036;-27
2022/11/25 10:02:36;;;;;;;5.10;2.50;;;;;;;13.91;40.77;100048.84;4986913;28;20030;-28
2022/11/25 10:05:13;;;;;;;4.85;2.20;;;;;;;14.26;40.52;100047.81;5075824;28;20040;-27
2022/11/25 10:07:43;;;;;;;3.83;1.45;;;;;;;14.32;38.79;100043.34;5086720;28;20634;-28
2022/11/25 10:10:26;;;;;;;7.18;2.35;;;;;;;14.65;38.78;100046.06;5068086;28;20032;-27
2022/11/25 10:12:54;;;;;;;3.28;1.85;;;;;;;13.44;40.85;100057.91;5086153;28;20107;-26
2022/11/25 10:15:33;;;;;;;2.08;1.25;;;;;;;13.63;40.01;100055.84;5086159;28;20036;-28
2022/11/25 10:18:51;;;;;;;5.03;1.67;;;;;;;13.72;40.68;100055.47;5071350;28;20024;-27
2022/11/25 10:21:16;;;;;;;4.30;2.28;;;;;;;13.89;40.49;100042.91;5084395;28;20059;-27
2022/11/25 10:23:42;;;;;;;4.18;2.17;;;;;;;14.44;39.72;100050.28;5089736;28;20055;-27
2022/11/25 10:26:13;;;;;;;5.00;2.40;;;;;;;14.25;38.64;100054.25;5071380;28;20028;-26
2022/11/25 10:28:44;;;;;;;4.35;2.08;;;;;;;13.97;39.04;100047.88;5089468;28;20037;-26
2022/11/25 10:31:13;;;;;;;3.97;1.80;;;;;;;14.03;39.31;100052.28;5071256;28;20028;-29
2022/11/25 10:33:52;;;;;;;;;;;;;;;13.77;39.42;100051.03;5090225;28;20107;-26
2022/11/25 10:36:22;;;;;;;3.83;2.22;;;;;;;13.56;39.67;100025.69;5089470;28;19923;-26
2022/11/25 10:38:51;;;;;;;2.90;1.63;;;;;;;13.74;39.94;100048.00;5071418;28;20043;-27
2022/11/25 10:41:20;;;;;;;6.63;1.77;;;;;;;13.33;39.75;100033.84;5089574;28;20024;-27
2022/11/25 10:43:47;;;;;;;3.30;2.00;;;;;;;13.65;40.46;100040.34;5089420;28;20112;-27
2022/11/25 10:46:42;;;;;;;3.30;1.60;;;;;;;14.09;39.40;100036.28;5089369;28;20031;-25
2022/11/25 10:49:23;;;;;;;2.10;1.42;;;;;;;13.97;39.34;100028.31;5089345;28;20131;-26
2022/11/25 10:51:49;;;;;;;3.10;1.63;;;;;;;13.89;39.64;100032.19;5089234;28;20495;-28
2022/11/25 10:54:23;;;;;;;4.85;2.22;;;;;;;14.13;38.32;100022.13;5089295;28;20040;-28
2022/11/25 10:57:03;;;;;;;3.13;1.35;;;;;;;14.12;38.45;100025.06;5088725;28;20556;-28
2022/11/25 10:59:37;;;;;;;5.30;2.40;;;;;;;14.53;37.88;100026.53;5089019;28;20142;-27
2022/11/25 11:02:12;;;;;;;4.70;2.70;;;;;;;13.96;38.16;100040.91;5089248;28;20054;-27
2022/11/25 11:04:53;;;;;;;2.47;1.48;;;;;;;13.82;37.70;100010.91;5089022;28;20036;-26
2022/11/25 11:07:19;;;;;;;3.58;2.25;;;;;;;14.08;37.73;100040.84;5089062;28;20574;-26
2022/11/25 11:09:45;;;;;;;4.10;2.10;;;;;;;14.22;37.70;100039.47;5088597;28;20047;-27
2022/11/25 11:12:23;;;;;;;2.13;1.42;;;;;;;14.45;37.46;100040.34;5089100;28;20028;-27
2022/11/25 11:14:53;;;;;;;3.53;1.65;;;;;;;14.53;36.60;100037.25;5088732;28;20043;-27
2022/11/25 11:17:21;;;;;;;3.15;1.70;;;;;;;14.38;37.60;100045.88;5088725;28;20059;-27
2022/11/25 11:19:59;;;;;;;;;;;;;;;14.57;37.06;100032.25;5089251;28;20042;-31
2022/11/25 11:22:25;;;;;;;2.45;1.17;;;;;;;14.92;36.06;100033.81;5088620;28;20005;-25
2022/11/25 11:25:05;;;;;;;1.75;1.25;;;;;;;15.20;36.60;100030.94;5089090;28;20111;-28
2022/11/25 11:27:35;;;;;;;5.65;1.70;;;;;;;15.56;34.98;100034.03;5070234;28;20449;-29
2022/11/25 11:30:31;;;;;;;3.22;1.60;;;;;;;15.21;35.54;100032.56;5069864;28;20115;-26
2022/11/25 11:33:04;;;;;;;3.90;1.27;;;;;;;16.16;34.36;100042.97;5067381;28;20047;-29
2022/11/25 11:35:47;;;;;;;3.35;1.35;;;;;;;15.92;33.56;100047.88;5070203;28;20024;-28
2022/11/25 11:38:51;;;;;;;4.15;2.30;;;;;;;16.18;32.64;100040.00;5088295;28;20411;-27
2022/11/25 11:41:24;;;;;;;4.05;1.80;;;;;;;16.17;33.30;100044.59;5058127;28;20040;-27
2022/11/25 11:44:06;;;;;;;2.15;1.15;;;;;;;15.78;33.68;100047.47;5088661;28;20043;-26
2022/11/25 11:46:50;;;;;;;1.55;1.08;;;;;;;15.79;33.45;100038.34;5088137;28;20056;-30
2022/11/25 11:49:27;;;;;;;3.58;1.17;;;;;;;15.88;34.26;100041.38;5069407;28;20497;-27
2022/11/25 11:52:11;;;;;;;4.50;1.90;;;;;;;16.90;33.41;100045.91;5088049;28;20024;-28
2022/11/25 11:54:52;;;;;;;3.13;1.45;;;;;;;17.17;31.52;100027.75;5088028;28;20036;-27
2022/11/25 11:57:43;;;;;;;3.60;1.67;;;;;;;16.74;32.06;100021.59;5088173;28;20036;-26
2022/11/25 12:00:13;;;;;;;3.58;1.17;;;;;;;15.66;33.26;100031.44;5088288;28;20092;-27